sensor_id;sensor_type;location;lat;lon;timestamp;temperature;humidity
6114;DHT22;3087;48.392;10.836;2022-07-29T00:01:46;22.60;99.90
6114;DHT22;3087;48.392;10.836;2022-07-29T00:04:11;20.90;99.90
6114;DHT22;3087;48.392;10.836;2022-07-29T00:06:37;23.00;99.90
6114;DHT22;3087;48.392;10.836;2022-07-29T00:09:03;23.10;99.90
6114;DHT22;3087;48.392;10.836;2022-07-29T00:11:28;23.20;99.90
6114;DHT22;3087;48.392;10.836;2022-07-29T00:13:54;23.30;99.90
6114;DHT22;3087;48.392;10.836;2022-07-29T00:16:19;23.40;99.90
6114;DHT22;3087;48.392;10.836;2022-07-29T00:18:45;23.40;99.90
6114;DHT22;3087;48.392;10.836;2022-07-29T00:21:11;23.10;99.90
6114;DHT22;3087;48.392;10.836;2022-07-29T00:23:36;23.10;99.90
6114;DHT22;3087;48.392;10.836;2022-07-29T00:26:02;25.50;99.90
6114;DHT22;3087;48.392;10.836;2022-07-29T00:28:28;23.10;99.90
6114;DHT22;3087;48.392;10.836;2022-07-29T00:30:54;22.90;99.90
6114;DHT22;3087;48.392;10.836;2022-07-29T00:33:19;22.40;99.90
6114;DHT22;3087;48.392;10.836;2022-07-29T00:35:46;22.10;99.90
6114;DHT22;3087;48.392;10.836;2022-07-29T00:38:18;21.90;99.90
6114;DHT22;3087;48.392;10.836;2022-07-29T00:40:45;22.10;99.90
6114;DHT22;3087;48.392;10.836;2022-07-29T00:43:12;22.00;99.90
6114;DHT22;3087;48.392;10.836;2022-07-29T00:45:39;21.70;99.90
6114;DHT22;3087;48.392;10.836;2022-07-29T00:48:05;21.50;99.90
6114;DHT22;3087;48.392;10.836;2022-07-29T00:50:33;21.30;99.90
6114;DHT22;3087;48.392;10.836;2022-07-29T00:52:59;21.10;99.90
6114;DHT22;3087;48.392;10.836;2022-07-29T00:55:25;21.10;99.90
6114;DHT22;3087;48.392;10.836;2022-07-29T00:57:50;20.90;99.90
6114;DHT22;3087;48.392;10.836;2022-07-29T01:00:23;20.90;99.90
6114;DHT22;3087;48.392;10.836;2022-07-29T01:02:48;20.90;99.90
6114;DHT22;3087;48.392;10.836;2022-07-29T01:05:19;21.00;99.90
6114;DHT22;3087;48.392;10.836;2022-07-29T01:07:46;21.00;99.90
6114;DHT22;3087;48.392;10.836;2022-07-29T01:10:15;20.90;99.90
6114;DHT22;3087;48.392;10.836;2022-07-29T01:12:42;20.90;99.90
6114;DHT22;3087;48.392;10.836;2022-07-29T01:15:09;20.80;99.90
6114;DHT22;3087;48.392;10.836;2022-07-29T01:20:30;20.70;99.90
6114;DHT22;3087;48.392;10.836;2022-07-29T01:30:57;20.70;99.90
6114;DHT22;3087;48.392;10.836;2022-07-29T01:33:25;20.60;99.90
6114;DHT22;3087;48.392;10.836;2022-07-29T01:36:40;20.50;99.90
6114;DHT22;3087;48.392;10.836;2022-07-29T01:41:56;20.50;99.90
6114;DHT22;3087;48.392;10.836;2022-07-29T01:44:35;20.50;99.90
6114;DHT22;3087;48.392;10.836;2022-07-29T01:47:07;20.70;99.90
6114;DHT22;3087;48.392;10.836;2022-07-29T01:49:36;21.10;99.90
6114;DHT22;3087;48.392;10.836;2022-07-29T01:52:15;21.00;99.90
6114;DHT22;3087;48.392;10.836;2022-07-29T01:54:51;20.80;99.90
6114;DHT22;3087;48.392;10.836;2022-07-29T01:57:19;20.70;99.90
6114;DHT22;3087;48.392;10.836;2022-07-29T01:59:47;20.60;99.90
6114;DHT22;3087;48.392;10.836;2022-07-29T02:02:18;20.50;99.90
6114;DHT22;3087;48.392;10.836;2022-07-29T02:04:45;20.40;99.90
6114;DHT22;3087;48.392;10.836;2022-07-29T02:07:17;20.40;99.90
6114;DHT22;3087;48.392;10.836;2022-07-29T02:09:44;20.30;99.90
6114;DHT22;3087;48.392;10.836;2022-07-29T02:12:11;20.20;99.90
6114;DHT22;3087;48.392;10.836;2022-07-29T02:14:42;20.30;99.90
6114;DHT22;3087;48.392;10.836;2022-07-29T02:17:11;20.20;99.90
6114;DHT22;3087;48.392;10.836;2022-07-29T02:19:38;20.30;99.90
6114;DHT22;3087;48.392;10.836;2022-07-29T02:22:05;20.30;99.90
6114;DHT22;3087;48.392;10.836;2022-07-29T02:24:33;20.30;99.90
6114;DHT22;3087;48.392;10.836;2022-07-29T02:27:01;20.40;99.90
6114;DHT22;3087;48.392;10.836;2022-07-29T02:29:28;20.30;99.90
6114;DHT22;3087;48.392;10.836;2022-07-29T02:31:57;20.40;99.90
6114;DHT22;3087;48.392;10.836;2022-07-29T02:34:24;20.70;99.90
6114;DHT22;3087;48.392;10.836;2022-07-29T02:36:51;21.10;99.90
6114;DHT22;3087;48.392;10.836;2022-07-29T02:39:17;21.40;99.90
6114;DHT22;3087;48.392;10.836;2022-07-29T02:41:50;21.70;99.90
6114;DHT22;3087;48.392;10.836;2022-07-29T02:44:20;21.90;99.90
6114;DHT22;3087;48.392;10.836;2022-07-29T02:46:59;21.50;99.90
6114;DHT22;3087;48.392;10.836;2022-07-29T02:54:58;20.90;99.90
6114;DHT22;3087;48.392;10.836;2022-07-29T02:57:47;20.70;99.90
6114;DHT22;3087;48.392;10.836;2022-07-29T03:00:30;20.80;99.90
6114;DHT22;3087;48.392;10.836;2022-07-29T03:02:59;21.10;99.90
6114;DHT22;3087;48.392;10.836;2022-07-29T03:05:27;21.40;99.90
6114;DHT22;3087;48.392;10.836;2022-07-29T03:07:56;21.60;99.90
6114;DHT22;3087;48.392;10.836;2022-07-29T03:10:24;21.90;99.90
6114;DHT22;3087;48.392;10.836;2022-07-29T03:12:50;22.00;99.90
6114;DHT22;3087;48.392;10.836;2022-07-29T03:15:17;22.20;99.90
6114;DHT22;3087;48.392;10.836;2022-07-29T03:17:43;22.30;99.90
6114;DHT22;3087;48.392;10.836;2022-07-29T03:20:10;22.10;99.90
6114;DHT22;3087;48.392;10.836;2022-07-29T03:22:44;21.80;99.90
6114;DHT22;3087;48.392;10.836;2022-07-29T03:25:13;21.40;99.90
6114;DHT22;3087;48.392;10.836;2022-07-29T03:27:41;21.30;99.90
6114;DHT22;3087;48.392;10.836;2022-07-29T03:30:07;21.00;99.90
6114;DHT22;3087;48.392;10.836;2022-07-29T03:32:34;20.90;99.90
6114;DHT22;3087;48.392;10.836;2022-07-29T03:35:00;20.90;99.90
6114;DHT22;3087;48.392;10.836;2022-07-29T03:37:26;20.80;99.90
6114;DHT22;3087;48.392;10.836;2022-07-29T03:39:54;20.90;99.90
6114;DHT22;3087;48.392;10.836;2022-07-29T03:42:21;21.30;99.90
6114;DHT22;3087;48.392;10.836;2022-07-29T03:44:50;18.40;99.90
6114;DHT22;3087;48.392;10.836;2022-07-29T03:47:20;20.50;99.90
6114;DHT22;3087;48.392;10.836;2022-07-29T03:49:49;16.60;99.90
6114;DHT22;3087;48.392;10.836;2022-07-29T03:52:16;20.30;99.90
6114;DHT22;3087;48.392;10.836;2022-07-29T03:54:42;20.20;99.90
6114;DHT22;3087;48.392;10.836;2022-07-29T03:57:09;20.10;99.90
6114;DHT22;3087;48.392;10.836;2022-07-29T03:59:35;20.10;99.90
6114;DHT22;3087;48.392;10.836;2022-07-29T04:02:08;20.20;99.90
6114;DHT22;3087;48.392;10.836;2022-07-29T04:04:35;20.20;99.90
6114;DHT22;3087;48.392;10.836;2022-07-29T04:07:01;20.20;99.90
6114;DHT22;3087;48.392;10.836;2022-07-29T04:09:27;20.60;99.90
6114;DHT22;3087;48.392;10.836;2022-07-29T04:11:53;21.10;99.90
6114;DHT22;3087;48.392;10.836;2022-07-29T04:14:19;21.70;99.90
6114;DHT22;3087;48.392;10.836;2022-07-29T04:16:45;22.00;99.90
6114;DHT22;3087;48.392;10.836;2022-07-29T04:19:11;22.40;99.90
6114;DHT22;3087;48.392;10.836;2022-07-29T04:21:41;22.70;99.90
6114;DHT22;3087;48.392;10.836;2022-07-29T04:24:07;22.80;99.90
6114;DHT22;3087;48.392;10.836;2022-07-29T04:26:33;22.70;99.90
6114;DHT22;3087;48.392;10.836;2022-07-29T04:28:59;22.70;99.90
6114;DHT22;3087;48.392;10.836;2022-07-29T04:31:25;22.80;99.90
6114;DHT22;3087;48.392;10.836;2022-07-29T04:33:50;22.80;99.90
6114;DHT22;3087;48.392;10.836;2022-07-29T04:36:16;22.80;99.90
6114;DHT22;3087;48.392;10.836;2022-07-29T04:38:42;22.70;99.90
6114;DHT22;3087;48.392;10.836;2022-07-29T04:41:08;22.60;99.90
6114;DHT22;3087;48.392;10.836;2022-07-29T04:43:34;22.40;99.90
6114;DHT22;3087;48.392;10.836;2022-07-29T04:46:01;22.30;99.90
6114;DHT22;3087;48.392;10.836;2022-07-29T04:48:26;22.30;99.90
6114;DHT22;3087;48.392;10.836;2022-07-29T04:50:52;22.20;99.90
6114;DHT22;3087;48.392;10.836;2022-07-29T04:53:18;22.20;99.90
6114;DHT22;3087;48.392;10.836;2022-07-29T04:55:44;22.30;99.90
6114;DHT22;3087;48.392;10.836;2022-07-29T04:58:10;22.50;99.90
6114;DHT22;3087;48.392;10.836;2022-07-29T05:00:36;22.70;99.90
6114;DHT22;3087;48.392;10.836;2022-07-29T05:03:03;22.80;99.90
6114;DHT22;3087;48.392;10.836;2022-07-29T05:05:29;23.10;99.90
6114;DHT22;3087;48.392;10.836;2022-07-29T05:07:55;23.20;99.90
6114;DHT22;3087;48.392;10.836;2022-07-29T05:10:23;23.30;99.90
6114;DHT22;3087;48.392;10.836;2022-07-29T05:12:49;23.30;99.90
6114;DHT22;3087;48.392;10.836;2022-07-29T05:15:15;23.40;99.90
6114;DHT22;3087;48.392;10.836;2022-07-29T05:17:40;23.50;99.90
6114;DHT22;3087;48.392;10.836;2022-07-29T05:20:06;23.60;99.90
6114;DHT22;3087;48.392;10.836;2022-07-29T05:22:32;23.70;99.90
6114;DHT22;3087;48.392;10.836;2022-07-29T05:24:58;23.70;99.90
6114;DHT22;3087;48.392;10.836;2022-07-29T05:27:24;23.80;99.90
6114;DHT22;3087;48.392;10.836;2022-07-29T05:29:51;23.90;99.90
6114;DHT22;3087;48.392;10.836;2022-07-29T05:32:16;23.80;99.90
6114;DHT22;3087;48.392;10.836;2022-07-29T05:34:42;23.80;99.90
6114;DHT22;3087;48.392;10.836;2022-07-29T05:37:09;23.60;99.90
6114;DHT22;3087;48.392;10.836;2022-07-29T05:39:34;23.30;99.90
6114;DHT22;3087;48.392;10.836;2022-07-29T05:42:00;23.20;99.90
6114;DHT22;3087;48.392;10.836;2022-07-29T05:44:26;23.30;99.90
6114;DHT22;3087;48.392;10.836;2022-07-29T05:46:51;23.30;99.90
6114;DHT22;3087;48.392;10.836;2022-07-29T05:49:17;23.40;99.90
6114;DHT22;3087;48.392;10.836;2022-07-29T05:51:44;23.50;99.90
6114;DHT22;3087;48.392;10.836;2022-07-29T05:54:10;23.70;99.90
6114;DHT22;3087;48.392;10.836;2022-07-29T05:56:37;23.70;99.90
6114;DHT22;3087;48.392;10.836;2022-07-29T05:59:03;23.60;99.90
6114;DHT22;3087;48.392;10.836;2022-07-29T06:01:28;23.70;99.90
6114;DHT22;3087;48.392;10.836;2022-07-29T06:03:54;23.80;99.90
6114;DHT22;3087;48.392;10.836;2022-07-29T06:06:20;23.80;99.90
6114;DHT22;3087;48.392;10.836;2022-07-29T06:08:45;23.80;99.90
6114;DHT22;3087;48.392;10.836;2022-07-29T06:11:11;23.90;99.90
6114;DHT22;3087;48.392;10.836;2022-07-29T06:13:36;23.90;99.90
6114;DHT22;3087;48.392;10.836;2022-07-29T06:16:02;23.90;99.90
6114;DHT22;3087;48.392;10.836;2022-07-29T06:18:29;24.00;99.90
6114;DHT22;3087;48.392;10.836;2022-07-29T06:20:55;24.00;99.90
6114;DHT22;3087;48.392;10.836;2022-07-29T06:23:21;24.10;99.90
6114;DHT22;3087;48.392;10.836;2022-07-29T06:25:47;24.10;99.90
6114;DHT22;3087;48.392;10.836;2022-07-29T06:28:14;24.10;99.90
6114;DHT22;3087;48.392;10.836;2022-07-29T06:30:40;24.20;99.90
6114;DHT22;3087;48.392;10.836;2022-07-29T06:33:06;24.20;99.90
6114;DHT22;3087;48.392;10.836;2022-07-29T06:35:34;24.10;99.90
6114;DHT22;3087;48.392;10.836;2022-07-29T06:38:02;24.10;99.90
6114;DHT22;3087;48.392;10.836;2022-07-29T06:40:28;24.20;99.90
6114;DHT22;3087;48.392;10.836;2022-07-29T06:43:13;24.20;99.90
6114;DHT22;3087;48.392;10.836;2022-07-29T06:45:38;24.20;99.90
6114;DHT22;3087;48.392;10.836;2022-07-29T06:48:06;24.30;99.90
6114;DHT22;3087;48.392;10.836;2022-07-29T06:50:32;24.30;99.90
6114;DHT22;3087;48.392;10.836;2022-07-29T06:52:57;24.30;99.90
6114;DHT22;3087;48.392;10.836;2022-07-29T06:55:23;24.30;99.90
6114;DHT22;3087;48.392;10.836;2022-07-29T06:57:49;24.30;99.90
6114;DHT22;3087;48.392;10.836;2022-07-29T07:00:15;24.30;99.90
6114;DHT22;3087;48.392;10.836;2022-07-29T07:02:41;24.30;99.90
6114;DHT22;3087;48.392;10.836;2022-07-29T07:05:07;26.00;99.90
6114;DHT22;3087;48.392;10.836;2022-07-29T07:07:32;24.50;99.90
6114;DHT22;3087;48.392;10.836;2022-07-29T07:09:59;24.60;99.90
6114;DHT22;3087;48.392;10.836;2022-07-29T07:12:25;24.60;99.90
6114;DHT22;3087;48.392;10.836;2022-07-29T07:14:50;24.60;99.90
6114;DHT22;3087;48.392;10.836;2022-07-29T07:17:16;24.70;99.90
6114;DHT22;3087;48.392;10.836;2022-07-29T07:19:41;24.70;99.90
6114;DHT22;3087;48.392;10.836;2022-07-29T07:22:07;24.50;99.90
6114;DHT22;3087;48.392;10.836;2022-07-29T07:24:33;24.20;99.90
6114;DHT22;3087;48.392;10.836;2022-07-29T07:26:58;24.10;99.90
6114;DHT22;3087;48.392;10.836;2022-07-29T07:29:24;24.10;99.90
6114;DHT22;3087;48.392;10.836;2022-07-29T07:31:50;24.30;99.90
6114;DHT22;3087;48.392;10.836;2022-07-29T07:34:15;24.30;99.90
6114;DHT22;3087;48.392;10.836;2022-07-29T07:36:41;24.40;99.90
6114;DHT22;3087;48.392;10.836;2022-07-29T07:39:07;24.60;99.90
6114;DHT22;3087;48.392;10.836;2022-07-29T07:41:32;24.80;99.90
6114;DHT22;3087;48.392;10.836;2022-07-29T07:43:58;24.80;99.90
6114;DHT22;3087;48.392;10.836;2022-07-29T07:46:24;24.80;99.90
6114;DHT22;3087;48.392;10.836;2022-07-29T07:48:50;24.90;99.90
6114;DHT22;3087;48.392;10.836;2022-07-29T07:51:17;24.90;99.90
6114;DHT22;3087;48.392;10.836;2022-07-29T07:53:43;25.00;99.90
6114;DHT22;3087;48.392;10.836;2022-07-29T07:56:10;25.00;99.90
6114;DHT22;3087;48.392;10.836;2022-07-29T07:58:35;25.10;99.90
6114;DHT22;3087;48.392;10.836;2022-07-29T08:01:01;25.10;99.90
6114;DHT22;3087;48.392;10.836;2022-07-29T08:03:27;25.10;99.90
6114;DHT22;3087;48.392;10.836;2022-07-29T08:05:53;21.30;99.90
6114;DHT22;3087;48.392;10.836;2022-07-29T08:08:19;25.10;99.90
6114;DHT22;3087;48.392;10.836;2022-07-29T08:10:45;25.10;99.90
6114;DHT22;3087;48.392;10.836;2022-07-29T08:13:25;25.00;99.90
6114;DHT22;3087;48.392;10.836;2022-07-29T08:15:54;24.90;99.90
6114;DHT22;3087;48.392;10.836;2022-07-29T08:18:23;24.90;99.90
6114;DHT22;3087;48.392;10.836;2022-07-29T08:20:50;24.60;99.90
6114;DHT22;3087;48.392;10.836;2022-07-29T08:23:16;24.40;99.90
6114;DHT22;3087;48.392;10.836;2022-07-29T08:25:41;24.40;99.90
6114;DHT22;3087;48.392;10.836;2022-07-29T08:28:07;24.40;99.90
6114;DHT22;3087;48.392;10.836;2022-07-29T08:30:34;24.40;99.90
6114;DHT22;3087;48.392;10.836;2022-07-29T08:33:00;24.50;99.90
6114;DHT22;3087;48.392;10.836;2022-07-29T08:35:26;24.60;99.90
6114;DHT22;3087;48.392;10.836;2022-07-29T08:37:52;24.70;99.90
6114;DHT22;3087;48.392;10.836;2022-07-29T08:40:19;24.70;99.90
6114;DHT22;3087;48.392;10.836;2022-07-29T08:42:46;24.60;99.90
6114;DHT22;3087;48.392;10.836;2022-07-29T08:45:12;24.40;99.90
6114;DHT22;3087;48.392;10.836;2022-07-29T08:47:39;24.20;99.90
6114;DHT22;3087;48.392;10.836;2022-07-29T08:50:08;24.20;99.90
6114;DHT22;3087;48.392;10.836;2022-07-29T08:52:39;24.20;99.90
6114;DHT22;3087;48.392;10.836;2022-07-29T08:55:07;24.30;99.90
6114;DHT22;3087;48.392;10.836;2022-07-29T08:57:34;24.20;99.90
6114;DHT22;3087;48.392;10.836;2022-07-29T09:00:02;24.10;99.90
6114;DHT22;3087;48.392;10.836;2022-07-29T09:02:35;24.10;99.90
6114;DHT22;3087;48.392;10.836;2022-07-29T09:05:02;24.10;99.90
6114;DHT22;3087;48.392;10.836;2022-07-29T09:07:29;24.10;99.90
6114;DHT22;3087;48.392;10.836;2022-07-29T09:09:55;24.20;99.90
6114;DHT22;3087;48.392;10.836;2022-07-29T09:12:22;24.60;99.90
6114;DHT22;3087;48.392;10.836;2022-07-29T09:14:50;24.20;99.90
6114;DHT22;3087;48.392;10.836;2022-07-29T09:17:16;24.40;99.90
6114;DHT22;3087;48.392;10.836;2022-07-29T09:19:43;24.40;99.90
6114;DHT22;3087;48.392;10.836;2022-07-29T09:22:09;24.50;99.90
6114;DHT22;3087;48.392;10.836;2022-07-29T09:24:45;24.60;99.90
6114;DHT22;3087;48.392;10.836;2022-07-29T09:27:21;24.70;99.90
6114;DHT22;3087;48.392;10.836;2022-07-29T09:30:05;24.70;99.90
6114;DHT22;3087;48.392;10.836;2022-07-29T09:32:32;24.70;99.90
6114;DHT22;3087;48.392;10.836;2022-07-29T09:35:20;24.60;99.90
6114;DHT22;3087;48.392;10.836;2022-07-29T09:37:47;24.60;99.90
6114;DHT22;3087;48.392;10.836;2022-07-29T09:40:14;24.40;99.90
6114;DHT22;3087;48.392;10.836;2022-07-29T09:42:41;24.30;99.90
6114;DHT22;3087;48.392;10.836;2022-07-29T09:45:08;24.30;99.90
6114;DHT22;3087;48.392;10.836;2022-07-29T09:47:42;24.40;99.90
6114;DHT22;3087;48.392;10.836;2022-07-29T09:50:10;24.50;99.90
6114;DHT22;3087;48.392;10.836;2022-07-29T09:52:47;24.60;99.90
6114;DHT22;3087;48.392;10.836;2022-07-29T09:55:14;24.60;99.90
6114;DHT22;3087;48.392;10.836;2022-07-29T09:57:40;24.40;99.90
6114;DHT22;3087;48.392;10.836;2022-07-29T10:02:38;24.60;99.90
6114;DHT22;3087;48.392;10.836;2022-07-29T10:05:06;24.70;99.90
6114;DHT22;3087;48.392;10.836;2022-07-29T10:07:53;24.70;99.90
6114;DHT22;3087;48.392;10.836;2022-07-29T10:10:30;24.80;99.90
6114;DHT22;3087;48.392;10.836;2022-07-29T10:13:14;25.00;99.90
6114;DHT22;3087;48.392;10.836;2022-07-29T10:15:42;25.20;99.90
6114;DHT22;3087;48.392;10.836;2022-07-29T10:18:11;25.30;99.90
6114;DHT22;3087;48.392;10.836;2022-07-29T10:20:38;25.40;99.90
6114;DHT22;3087;48.392;10.836;2022-07-29T10:23:06;25.50;99.90
6114;DHT22;3087;48.392;10.836;2022-07-29T10:25:32;25.60;99.90
6114;DHT22;3087;48.392;10.836;2022-07-29T10:27:58;25.80;99.90
6114;DHT22;3087;48.392;10.836;2022-07-29T10:30:25;25.90;99.90
6114;DHT22;3087;48.392;10.836;2022-07-29T10:38:43;26.20;99.90
6114;DHT22;3087;48.392;10.836;2022-07-29T10:41:41;26.20;99.90
6114;DHT22;3087;48.392;10.836;2022-07-29T10:44:23;26.20;99.90
6114;DHT22;3087;48.392;10.836;2022-07-29T10:46:55;26.30;99.90
6114;DHT22;3087;48.392;10.836;2022-07-29T10:49:27;26.30;99.90
6114;DHT22;3087;48.392;10.836;2022-07-29T10:52:21;26.30;99.90
6114;DHT22;3087;48.392;10.836;2022-07-29T10:54:49;26.30;99.90
6114;DHT22;3087;48.392;10.836;2022-07-29T10:57:29;26.30;99.90
6114;DHT22;3087;48.392;10.836;2022-07-29T11:05:07;26.50;99.90
6114;DHT22;3087;48.392;10.836;2022-07-29T11:07:34;26.60;99.90
6114;DHT22;3087;48.392;10.836;2022-07-29T11:15:19;26.70;99.90
6114;DHT22;3087;48.392;10.836;2022-07-29T11:20:45;26.90;99.90
6114;DHT22;3087;48.392;10.836;2022-07-29T11:23:28;27.00;99.90
6114;DHT22;3087;48.392;10.836;2022-07-29T11:26:14;27.30;99.90
6114;DHT22;3087;48.392;10.836;2022-07-29T11:34:30;28.20;99.90
6114;DHT22;3087;48.392;10.836;2022-07-29T11:39:46;28.00;99.90
6114;DHT22;3087;48.392;10.836;2022-07-29T11:45:09;28.00;99.90
6114;DHT22;3087;48.392;10.836;2022-07-29T11:47:40;27.90;99.90
6114;DHT22;3087;48.392;10.836;2022-07-29T11:50:11;28.00;99.90
6114;DHT22;3087;48.392;10.836;2022-07-29T11:52:46;28.30;99.90
6114;DHT22;3087;48.392;10.836;2022-07-29T11:55:18;28.90;99.90
6114;DHT22;3087;48.392;10.836;2022-07-29T11:57:52;29.30;99.90
6114;DHT22;3087;48.392;10.836;2022-07-29T12:00:30;29.30;99.90
6114;DHT22;3087;48.392;10.836;2022-07-29T12:02:58;29.20;99.90
6114;DHT22;3087;48.392;10.836;2022-07-29T12:05:38;29.00;99.90
6114;DHT22;3087;48.392;10.836;2022-07-29T12:08:13;28.90;99.90
6114;DHT22;3087;48.392;10.836;2022-07-29T12:10:41;28.80;99.90
6114;DHT22;3087;48.392;10.836;2022-07-29T12:13:08;28.60;99.90
6114;DHT22;3087;48.392;10.836;2022-07-29T12:15:35;28.50;99.90
6114;DHT22;3087;48.392;10.836;2022-07-29T12:18:16;28.40;99.90
6114;DHT22;3087;48.392;10.836;2022-07-29T12:20:59;28.20;99.90
6114;DHT22;3087;48.392;10.836;2022-07-29T12:23:29;28.20;99.90
6114;DHT22;3087;48.392;10.836;2022-07-29T12:25:55;28.00;99.90
6114;DHT22;3087;48.392;10.836;2022-07-29T12:28:23;28.00;99.90
6114;DHT22;3087;48.392;10.836;2022-07-29T12:30:50;26.60;99.90
6114;DHT22;3087;48.392;10.836;2022-07-29T12:33:28;28.00;99.90
6114;DHT22;3087;48.392;10.836;2022-07-29T12:35:59;28.00;99.90
6114;DHT22;3087;48.392;10.836;2022-07-29T12:38:25;27.90;99.90
6114;DHT22;3087;48.392;10.836;2022-07-29T12:40:53;27.80;99.90
6114;DHT22;3087;48.392;10.836;2022-07-29T12:43:23;27.70;99.90
6114;DHT22;3087;48.392;10.836;2022-07-29T12:45:51;27.70;99.90
6114;DHT22;3087;48.392;10.836;2022-07-29T12:48:38;27.60;99.90
6114;DHT22;3087;48.392;10.836;2022-07-29T12:51:05;27.50;99.90
6114;DHT22;3087;48.392;10.836;2022-07-29T12:53:35;27.40;99.90
6114;DHT22;3087;48.392;10.836;2022-07-29T12:56:06;27.40;99.90
6114;DHT22;3087;48.392;10.836;2022-07-29T12:58:39;27.30;99.90
6114;DHT22;3087;48.392;10.836;2022-07-29T13:01:16;27.30;99.90
6114;DHT22;3087;48.392;10.836;2022-07-29T13:03:55;27.30;99.90
6114;DHT22;3087;48.392;10.836;2022-07-29T13:09:12;27.30;99.90
6114;DHT22;3087;48.392;10.836;2022-07-29T13:11:49;27.10;99.90
6114;DHT22;3087;48.392;10.836;2022-07-29T13:14:41;27.10;99.90
6114;DHT22;3087;48.392;10.836;2022-07-29T13:17:21;27.00;99.90
6114;DHT22;3087;48.392;10.836;2022-07-29T13:19:50;27.00;99.90
6114;DHT22;3087;48.392;10.836;2022-07-29T13:22:21;27.10;99.90
6114;DHT22;3087;48.392;10.836;2022-07-29T13:24:58;27.10;99.90
6114;DHT22;3087;48.392;10.836;2022-07-29T13:27:38;27.10;99.90
6114;DHT22;3087;48.392;10.836;2022-07-29T13:30:14;27.10;99.90
6114;DHT22;3087;48.392;10.836;2022-07-29T13:32:40;27.10;99.90
6114;DHT22;3087;48.392;10.836;2022-07-29T13:35:07;27.10;99.90
6114;DHT22;3087;48.392;10.836;2022-07-29T13:37:40;27.10;99.90
6114;DHT22;3087;48.392;10.836;2022-07-29T13:40:07;27.20;99.90
6114;DHT22;3087;48.392;10.836;2022-07-29T13:42:34;27.30;99.90
6114;DHT22;3087;48.392;10.836;2022-07-29T13:45:00;27.20;99.90
6114;DHT22;3087;48.392;10.836;2022-07-29T13:47:27;27.30;99.90
6114;DHT22;3087;48.392;10.836;2022-07-29T13:49:54;27.20;99.90
6114;DHT22;3087;48.392;10.836;2022-07-29T13:52:19;27.20;99.90
6114;DHT22;3087;48.392;10.836;2022-07-29T13:54:45;27.20;99.90
6114;DHT22;3087;48.392;10.836;2022-07-29T13:57:12;27.30;99.90
6114;DHT22;3087;48.392;10.836;2022-07-29T13:59:41;27.40;99.90
6114;DHT22;3087;48.392;10.836;2022-07-29T14:02:08;27.40;99.90
6114;DHT22;3087;48.392;10.836;2022-07-29T14:04:34;27.50;99.90
6114;DHT22;3087;48.392;10.836;2022-07-29T14:07:00;27.40;99.90
6114;DHT22;3087;48.392;10.836;2022-07-29T14:09:26;27.40;99.90
6114;DHT22;3087;48.392;10.836;2022-07-29T14:11:51;27.40;99.90
6114;DHT22;3087;48.392;10.836;2022-07-29T14:14:18;27.50;99.90
6114;DHT22;3087;48.392;10.836;2022-07-29T14:16:44;27.60;99.90
6114;DHT22;3087;48.392;10.836;2022-07-29T14:19:10;27.80;99.90
6114;DHT22;3087;48.392;10.836;2022-07-29T14:21:36;28.10;99.90
6114;DHT22;3087;48.392;10.836;2022-07-29T14:24:02;28.20;99.90
6114;DHT22;3087;48.392;10.836;2022-07-29T14:26:28;28.20;99.90
6114;DHT22;3087;48.392;10.836;2022-07-29T14:28:53;28.30;99.90
6114;DHT22;3087;48.392;10.836;2022-07-29T14:31:19;28.50;99.90
6114;DHT22;3087;48.392;10.836;2022-07-29T14:33:45;28.70;99.90
6114;DHT22;3087;48.392;10.836;2022-07-29T14:36:11;28.80;99.90
6114;DHT22;3087;48.392;10.836;2022-07-29T14:38:36;28.90;99.90
6114;DHT22;3087;48.392;10.836;2022-07-29T14:41:06;29.00;99.90
6114;DHT22;3087;48.392;10.836;2022-07-29T14:43:32;29.00;99.90
6114;DHT22;3087;48.392;10.836;2022-07-29T14:46:01;29.00;99.90
6114;DHT22;3087;48.392;10.836;2022-07-29T14:48:27;28.80;99.90
6114;DHT22;3087;48.392;10.836;2022-07-29T14:50:54;28.80;99.90
6114;DHT22;3087;48.392;10.836;2022-07-29T14:53:24;28.70;99.90
6114;DHT22;3087;48.392;10.836;2022-07-29T14:55:50;28.60;99.90
6114;DHT22;3087;48.392;10.836;2022-07-29T14:58:16;28.50;99.90
6114;DHT22;3087;48.392;10.836;2022-07-29T15:00:42;28.50;99.90
6114;DHT22;3087;48.392;10.836;2022-07-29T15:03:08;28.40;99.90
6114;DHT22;3087;48.392;10.836;2022-07-29T15:05:36;28.30;99.90
6114;DHT22;3087;48.392;10.836;2022-07-29T15:08:03;28.30;99.90
6114;DHT22;3087;48.392;10.836;2022-07-29T15:10:29;28.20;99.90
6114;DHT22;3087;48.392;10.836;2022-07-29T15:12:55;28.20;99.90
6114;DHT22;3087;48.392;10.836;2022-07-29T15:15:21;28.20;99.90
6114;DHT22;3087;48.392;10.836;2022-07-29T15:17:47;28.20;99.90
6114;DHT22;3087;48.392;10.836;2022-07-29T15:20:13;28.10;99.90
6114;DHT22;3087;48.392;10.836;2022-07-29T15:22:39;28.00;99.90
6114;DHT22;3087;48.392;10.836;2022-07-29T15:25:06;27.90;99.90
6114;DHT22;3087;48.392;10.836;2022-07-29T15:27:32;27.80;99.90
6114;DHT22;3087;48.392;10.836;2022-07-29T15:29:58;27.80;99.90
6114;DHT22;3087;48.392;10.836;2022-07-29T15:32:23;27.70;99.90
6114;DHT22;3087;48.392;10.836;2022-07-29T15:34:49;27.60;99.90
6114;DHT22;3087;48.392;10.836;2022-07-29T15:37:14;27.50;99.90
6114;DHT22;3087;48.392;10.836;2022-07-29T15:39:40;27.40;99.90
6114;DHT22;3087;48.392;10.836;2022-07-29T15:42:05;27.30;99.90
6114;DHT22;3087;48.392;10.836;2022-07-29T15:44:31;27.20;99.90
6114;DHT22;3087;48.392;10.836;2022-07-29T15:46:57;27.10;99.90
6114;DHT22;3087;48.392;10.836;2022-07-29T15:49:40;27.10;99.90
6114;DHT22;3087;48.392;10.836;2022-07-29T15:52:07;27.00;99.90
6114;DHT22;3087;48.392;10.836;2022-07-29T15:54:35;27.00;99.90
6114;DHT22;3087;48.392;10.836;2022-07-29T15:57:02;26.90;99.90
6114;DHT22;3087;48.392;10.836;2022-07-29T15:59:28;26.80;99.90
6114;DHT22;3087;48.392;10.836;2022-07-29T16:01:54;26.70;99.90
6114;DHT22;3087;48.392;10.836;2022-07-29T16:04:20;26.60;99.90
6114;DHT22;3087;48.392;10.836;2022-07-29T16:06:47;26.50;99.90
6114;DHT22;3087;48.392;10.836;2022-07-29T16:09:14;26.40;99.90
6114;DHT22;3087;48.392;10.836;2022-07-29T16:11:40;26.20;99.90
6114;DHT22;3087;48.392;10.836;2022-07-29T16:14:06;26.10;99.90
6114;DHT22;3087;48.392;10.836;2022-07-29T16:16:32;26.00;99.90
6114;DHT22;3087;48.392;10.836;2022-07-29T16:18:57;26.00;99.90
6114;DHT22;3087;48.392;10.836;2022-07-29T16:21:23;25.90;99.90
6114;DHT22;3087;48.392;10.836;2022-07-29T16:23:49;25.80;99.90
6114;DHT22;3087;48.392;10.836;2022-07-29T16:26:15;25.70;99.90
6114;DHT22;3087;48.392;10.836;2022-07-29T16:28:40;25.60;99.90
6114;DHT22;3087;48.392;10.836;2022-07-29T16:31:06;25.40;99.90
6114;DHT22;3087;48.392;10.836;2022-07-29T16:33:32;25.30;99.90
6114;DHT22;3087;48.392;10.836;2022-07-29T16:35:57;25.10;99.90
6114;DHT22;3087;48.392;10.836;2022-07-29T16:38:23;24.80;99.90
6114;DHT22;3087;48.392;10.836;2022-07-29T16:40:48;24.60;99.90
6114;DHT22;3087;48.392;10.836;2022-07-29T16:43:14;24.40;99.90
6114;DHT22;3087;48.392;10.836;2022-07-29T16:45:40;24.30;99.90
6114;DHT22;3087;48.392;10.836;2022-07-29T16:48:05;23.90;99.90